aviador You're here:

DAOI Decoded Metar

ECH-CHELIFF in ALGERIA
Report Time2018-04-26 22:00:00
UTC Time2018-04-26 22:54:41
Flight Rules vfr VFR
Wind030° at 05 kt
W.Decomp.*RWY 08: 3.2 kt HW 3.8 kt LCW
W.Rank030° ranks 21
Current wind is below 030° avg. (6.4)
Visibility9000 m
Phenomena:N/A
Clouds:Scattered 026 Hf
Scattered 233 Hf
Expected CloudBase > 1,200 ft AGL from Temp-Dew spread
CeilingNone
Temp16°C (ISA +2)
Dew Point13°C (83% RH)
AAT15.2°C
QNH1014 hPa
Density Alt866 ft
Elevation469 ft
Report Wrong Elevation
Raw Report
METAR DAOI 262200Z 03005KT 9000 SCT026 SCT233 16/13 Q1014=

Extra information for DAOI:More info

Metar Taf Metar & Taf Last 4 Metars F.Rules Stats Wind Profile Meteogram Temp Stats Airport Information Weather charts Add Link Nearby VenuesMetar ALERT Operation Metar Decoded Social comments